createdAt,value
2022-11-06T00:00:22.582Z,101466.55
2022-11-06T00:03:00.401Z,101462.13
2022-11-06T00:05:29.550Z,101466.64
2022-11-06T00:07:57.759Z,101470.43
2022-11-06T00:10:26.356Z,101469.55
2022-11-06T00:12:54.427Z,101466.31
2022-11-06T00:15:22.604Z,101462.05
2022-11-06T00:17:51.147Z,101459.63
2022-11-06T00:20:19.609Z,101460.92
2022-11-06T00:22:47.860Z,101465.59
2022-11-06T00:25:16.510Z,101468.58
2022-11-06T00:27:44.624Z,101462.45
2022-11-06T00:30:12.901Z,101460.12
2022-11-06T00:32:41.012Z,101453.73
2022-11-06T00:35:09.472Z,101457.84
2022-11-06T00:37:37.558Z,101460.17
2022-11-06T00:40:06.982Z,101461.23
2022-11-06T00:42:35.126Z,101459.92
2022-11-06T00:45:03.571Z,101458.83
2022-11-06T00:47:31.813Z,101452.53
2022-11-06T00:50:00.066Z,101440.60
2022-11-06T00:52:30.250Z,101440.45
2022-11-06T00:54:58.369Z,101451.88
2022-11-06T00:57:26.547Z,101450.25
2022-11-06T00:59:54.725Z,101446.14
2022-11-06T01:02:23.103Z,101439.23
2022-11-06T01:04:51.602Z,101435.61
2022-11-06T01:07:19.777Z,101433.27
2022-11-06T01:09:48.155Z,101430.19
2022-11-06T01:12:16.336Z,101432.70
2022-11-06T01:14:45.844Z,101433.64
2022-11-06T01:17:14.747Z,101433.14
2022-11-06T01:19:42.859Z,101435.48
2022-11-06T01:22:11.197Z,101431.69
2022-11-06T01:24:39.559Z,101429.42
2022-11-06T01:29:56.605Z,101426.68
2022-11-06T01:32:24.681Z,101418.80
2022-11-06T01:34:52.861Z,101415.89
2022-11-06T01:37:21.495Z,101408.39
2022-11-06T01:39:50.287Z,101408.39
2022-11-06T01:42:20.865Z,101415.07
2022-11-06T01:45:45.950Z,101416.77
2022-11-06T01:48:15.149Z,101407.34
2022-11-06T01:50:46.631Z,101406.99
2022-11-06T01:53:16.295Z,101405.45
2022-11-06T01:55:48.661Z,101410.20
2022-11-06T01:58:20.671Z,101408.02
2022-11-06T02:00:50.687Z,101405.44
2022-11-06T02:03:19.629Z,101404.80
2022-11-06T02:05:48.074Z,101401.22
2022-11-06T02:08:18.997Z,101398.08
2022-11-06T02:10:48.515Z,101400.42
2022-11-06T02:13:20.082Z,101396.61
2022-11-06T02:15:48.145Z,101397.09
2022-11-06T02:18:37.718Z,101394.77
2022-11-06T02:21:28.829Z,101387.67
2022-11-06T02:24:28.257Z,101388.72
2022-11-06T02:27:00.389Z,101391.46
2022-11-06T02:30:03.137Z,101384.93
2022-11-06T02:32:49.225Z,101379.98
2022-11-06T02:35:38.301Z,101373.53
2022-11-06T02:38:14.269Z,101365.39
2022-11-06T02:40:47.295Z,101362.73
2022-11-06T02:43:18.225Z,101358.54
2022-11-06T02:45:54.573Z,101365.77
2022-11-06T02:48:38.867Z,101365.36
2022-11-06T02:51:12.762Z,101363.19
2022-11-06T02:53:44.712Z,101354.40
2022-11-06T02:58:41.631Z,101349.02
2022-11-06T03:01:19.114Z,101349.48
2022-11-06T03:03:53.682Z,101352.70
2022-11-06T03:06:32.951Z,101354.38
2022-11-06T03:09:13.522Z,101352.52
2022-11-06T03:11:42.103Z,101354.71
2022-11-06T03:14:20.821Z,101351.58
2022-11-06T03:17:18.073Z,101349.02
2022-11-06T03:19:54.127Z,101345.21
2022-11-06T03:22:35.241Z,101342.39
2022-11-06T03:25:08.796Z,101344.32
2022-11-06T03:28:03.007Z,101343.42
2022-11-06T03:30:35.547Z,101336.99
2022-11-06T03:33:15.726Z,101338.84
2022-11-06T03:35:47.567Z,101340.93
2022-11-06T03:38:27.608Z,101334.91
2022-11-06T03:41:02.032Z,101331.52
2022-11-06T03:43:36.182Z,101327.66
2022-11-06T03:46:13.331Z,101326.21
2022-11-06T03:48:46.518Z,101333.61
2022-11-06T03:51:25.441Z,101334.11
2022-11-06T03:54:04.140Z,101334.75
2022-11-06T03:56:47.078Z,101329.90
2022-11-06T03:59:16.626Z,101327.55
2022-11-06T04:01:46.897Z,101328.98
2022-11-06T04:04:30.952Z,101331.39
2022-11-06T04:07:13.480Z,101333.31
2022-11-06T04:09:45.231Z,101332.10
2022-11-06T04:12:25.444Z,101331.18
2022-11-06T04:14:57.911Z,101325.61
2022-11-06T04:17:30.120Z,101327.80
2022-11-06T04:20:02.457Z,101329.05
2022-11-06T04:22:49.399Z,101325.59
2022-11-06T04:25:23.508Z,101325.77
2022-11-06T04:28:08.982Z,101323.34
2022-11-06T04:30:50.053Z,101322.19
2022-11-06T04:33:29.142Z,101327.17
2022-11-06T04:36:18.848Z,101328.73
2022-11-06T04:39:12.333Z,101330.09
2022-11-06T04:41:58.672Z,101329.98
2022-11-06T04:44:44.133Z,101329.33
2022-11-06T04:47:16.805Z,101328.49
2022-11-06T04:49:45.998Z,101326.33
2022-11-06T04:52:18.944Z,101332.30
2022-11-06T04:54:47.526Z,101332.51
2022-11-06T04:57:16.120Z,101335.69
2022-11-06T04:59:44.397Z,101331.26
2022-11-06T05:02:12.639Z,101336.00
2022-11-06T05:04:40.957Z,101338.05
2022-11-06T05:07:13.043Z,101336.71
2022-11-06T05:09:42.471Z,101332.11
2022-11-06T05:12:10.509Z,101332.92
2022-11-06T05:14:38.685Z,101333.40
2022-11-06T05:17:07.579Z,101332.52
2022-11-06T05:19:35.762Z,101325.48
2022-11-06T05:22:04.963Z,101317.45
2022-11-06T05:24:32.932Z,101313.20
2022-11-06T05:27:01.062Z,101317.80
2022-11-06T05:29:29.188Z,101315.80
2022-11-06T05:31:57.468Z,101323.27
2022-11-06T05:34:25.748Z,101324.29
2022-11-06T05:36:54.031Z,101319.59
2022-11-06T05:39:22.309Z,101314.10
2022-11-06T05:41:50.591Z,101314.30
2022-11-06T05:44:18.977Z,101319.23
2022-11-06T05:46:49.370Z,101321.46
2022-11-06T05:49:19.231Z,101321.79
2022-11-06T05:51:48.015Z,101312.09
2022-11-06T05:54:16.603Z,101313.50
2022-11-06T05:56:44.779Z,101314.20
2022-11-06T05:59:13.672Z,101315.39
2022-11-06T06:01:41.880Z,101319.16
2022-11-06T06:04:10.334Z,101318.73
2022-11-06T06:06:38.822Z,101320.44
2022-11-06T06:09:06.998Z,101324.15
2022-11-06T06:11:35.180Z,101325.02
2022-11-06T06:14:03.446Z,101324.64
2022-11-06T06:16:31.533Z,101324.52
2022-11-06T06:18:59.916Z,101322.20
2022-11-06T06:21:28.096Z,101325.64
2022-11-06T06:23:56.171Z,101319.25
2022-11-06T06:26:24.461Z,101323.41
2022-11-06T06:28:52.629Z,101326.87
2022-11-06T06:31:21.221Z,101326.08
2022-11-06T06:33:50.037Z,101327.44
2022-11-06T06:36:18.087Z,101321.14
2022-11-06T06:38:46.195Z,101323.01
2022-11-06T06:41:14.787Z,101328.88
2022-11-06T06:43:42.930Z,101333.03
2022-11-06T06:46:11.106Z,101333.75
2022-11-06T06:48:39.490Z,101335.59
2022-11-06T06:51:07.676Z,101340.31
2022-11-06T06:53:36.496Z,101344.40
2022-11-06T06:56:05.257Z,101343.17
2022-11-06T06:58:34.256Z,101340.30
2022-11-06T07:01:04.624Z,101342.71
2022-11-06T07:03:33.073Z,101346.16
2022-11-06T07:06:01.147Z,101348.48
2022-11-06T07:08:29.850Z,101348.36
2022-11-06T07:11:02.924Z,101348.50
2022-11-06T07:13:35.562Z,101355.98
2022-11-06T07:16:10.339Z,101357.39
2022-11-06T07:18:39.840Z,101356.95
2022-11-06T07:21:11.162Z,101355.05
2022-11-06T07:23:39.467Z,101358.09
2022-11-06T07:26:07.671Z,101370.14
2022-11-06T07:28:36.642Z,101366.56
2022-11-06T07:31:06.815Z,101368.84
2022-11-06T07:33:35.766Z,101364.77
2022-11-06T07:36:09.593Z,101359.80
2022-11-06T07:38:39.341Z,101362.86
2022-11-06T07:41:11.524Z,101370.52
2022-11-06T07:43:41.403Z,101371.48
2022-11-06T07:46:12.415Z,101371.42
2022-11-06T07:48:40.698Z,101372.13
2022-11-06T07:51:11.227Z,101370.45
2022-11-06T07:53:39.913Z,101374.00
2022-11-06T07:56:09.092Z,101376.26
2022-11-06T07:58:38.216Z,101377.70
2022-11-06T08:01:06.666Z,101372.96
2022-11-06T08:03:35.014Z,101380.68
2022-11-06T08:06:04.823Z,101381.80
2022-11-06T08:08:33.130Z,101380.11
2022-11-06T08:11:06.707Z,101383.59
2022-11-06T08:13:35.371Z,101386.58
2022-11-06T08:16:08.213Z,101390.54
2022-11-06T08:18:36.434Z,101389.55
2022-11-06T08:21:05.738Z,101388.66
2022-11-06T08:23:35.653Z,101395.45
2022-11-06T08:26:05.883Z,101397.05
2022-11-06T08:28:33.957Z,101401.66
2022-11-06T08:31:09.101Z,101399.73
2022-11-06T08:33:38.910Z,101400.93
2022-11-06T08:36:09.620Z,101405.18
2022-11-06T08:38:37.722Z,101403.98
2022-11-06T08:41:11.331Z,101403.74
2022-11-06T08:43:40.236Z,101403.67
2022-11-06T08:46:09.812Z,101404.48
2022-11-06T08:48:38.416Z,101412.02
2022-11-06T08:51:06.803Z,101408.45
2022-11-06T08:53:35.334Z,101410.84
2022-11-06T08:56:05.370Z,101413.45
2022-11-06T08:58:33.480Z,101409.33
2022-11-06T09:01:01.845Z,101411.59
2022-11-06T09:03:30.455Z,101403.15
2022-11-06T09:05:58.533Z,101403.16
2022-11-06T09:08:27.118Z,101402.13
2022-11-06T09:10:58.587Z,101400.41
2022-11-06T09:13:27.269Z,101399.21
2022-11-06T09:15:55.593Z,101401.48
2022-11-06T09:18:23.838Z,101399.39
2022-11-06T09:20:58.715Z,101396.38
2022-11-06T09:23:26.889Z,101401.23
2022-11-06T09:25:57.467Z,101391.23
2022-11-06T09:28:25.747Z,101388.64
2022-11-06T09:30:53.924Z,101393.27
2022-11-06T09:33:22.307Z,101391.83
2022-11-06T09:35:50.485Z,101395.92
2022-11-06T09:38:18.667Z,101401.27
2022-11-06T09:40:58.019Z,101400.48
2022-11-06T09:46:47.917Z,101392.17
2022-11-06T09:49:37.132Z,101392.91
2022-11-06T09:52:11.236Z,101386.77
2022-11-06T09:54:45.074Z,101386.06
2022-11-06T09:57:21.325Z,101389.73
2022-11-06T09:59:51.301Z,101383.22
2022-11-06T10:02:32.668Z,101388.48
2022-11-06T10:05:12.196Z,101385.46
2022-11-06T10:07:43.922Z,101383.60
2022-11-06T10:10:28.703Z,101385.66
2022-11-06T10:13:17.798Z,101386.48
2022-11-06T10:15:58.280Z,101387.73
2022-11-06T10:18:32.607Z,101380.17
2022-11-06T10:21:08.000Z,101380.80
2022-11-06T10:23:44.342Z,101377.14
2022-11-06T10:26:17.249Z,101375.60
2022-11-06T10:29:02.757Z,101370.91
2022-11-06T10:31:55.315Z,101373.50
2022-11-06T10:34:32.904Z,101370.08
2022-11-06T10:37:07.041Z,101369.79
2022-11-06T10:39:37.341Z,101370.82
2022-11-06T10:42:20.268Z,101370.77
2022-11-06T10:44:52.141Z,101369.45
2022-11-06T10:47:23.359Z,101360.55
2022-11-06T10:50:00.994Z,101354.35
2022-11-06T10:53:06.694Z,101352.88
2022-11-06T10:55:56.663Z,101348.64
2022-11-06T10:58:32.246Z,101337.25
2022-11-06T11:01:05.164Z,101333.83
2022-11-06T11:03:36.912Z,101328.34
2022-11-06T11:06:05.675Z,101320.75
2022-11-06T11:08:42.507Z,101325.77
2022-11-06T11:11:13.523Z,101318.98
2022-11-06T11:13:43.653Z,101322.65
2022-11-06T11:16:26.164Z,101318.67
2022-11-06T11:18:54.579Z,101317.30
2022-11-06T11:21:27.178Z,101311.23
2022-11-06T11:24:01.381Z,101305.00
2022-11-06T11:26:32.330Z,101302.09
2022-11-06T11:29:10.520Z,101301.98
2022-11-06T11:31:39.521Z,101302.58
2022-11-06T11:34:17.449Z,101300.07
2022-11-06T11:36:52.541Z,101296.85
2022-11-06T11:39:24.565Z,101294.23
2022-11-06T11:41:52.701Z,101293.04
2022-11-06T11:44:21.287Z,101290.57
2022-11-06T11:46:54.784Z,101285.36
2022-11-06T11:49:31.458Z,101282.09
2022-11-06T11:52:02.350Z,101281.42
2022-11-06T11:54:33.789Z,101277.31
2022-11-06T11:57:17.080Z,101276.67
2022-11-06T11:59:49.313Z,101270.71
2022-11-06T12:02:29.476Z,101267.65
2022-11-06T12:05:06.008Z,101264.34
2022-11-06T12:07:42.024Z,101257.48
2022-11-06T12:10:39.876Z,101250.59
2022-11-06T12:13:16.781Z,101246.58
2022-11-06T12:16:00.278Z,101245.52
2022-11-06T12:18:43.090Z,101231.30
2022-11-06T12:21:22.174Z,101229.95
2022-11-06T12:24:12.195Z,101226.50
2022-11-06T12:27:04.934Z,101226.83
2022-11-06T12:29:44.644Z,101221.87
2022-11-06T12:32:43.656Z,101213.26
2022-11-06T12:35:42.026Z,101208.63
2022-11-06T12:38:47.345Z,101208.86
2022-11-06T12:41:25.246Z,101203.96
2022-11-06T12:43:54.656Z,101193.72
2022-11-06T12:46:28.975Z,101196.70
2022-11-06T12:49:30.921Z,101188.33
2022-11-06T12:52:14.252Z,101180.27
2022-11-06T12:54:57.771Z,101180.13
2022-11-06T12:58:07.811Z,101171.66
2022-11-06T13:01:10.144Z,101177.38
2022-11-06T13:04:26.451Z,101168.02
2022-11-06T13:07:09.224Z,101162.25
2022-11-06T13:09:43.158Z,101164.66
2022-11-06T13:12:37.635Z,101156.36
2022-11-06T13:15:30.581Z,101158.36
2022-11-06T13:18:06.800Z,101151.39
2022-11-06T13:20:52.916Z,101146.91
2022-11-06T13:23:47.977Z,101147.84
2022-11-06T13:26:21.327Z,101147.27
2022-11-06T13:28:54.356Z,101142.48
2022-11-06T13:31:28.338Z,101139.29
2022-11-06T13:34:00.278Z,101134.61
2022-11-06T13:36:31.761Z,101129.89
2022-11-06T13:39:07.741Z,101125.55
2022-11-06T13:41:35.865Z,101130.43
2022-11-06T13:44:06.915Z,101128.58
2022-11-06T13:46:44.195Z,101127.23
2022-11-06T13:49:30.897Z,101117.52
2022-11-06T13:52:09.397Z,101121.92
2022-11-06T13:54:56.217Z,101115.31
2022-11-06T13:57:45.364Z,101115.48
2022-11-06T14:00:31.557Z,101115.73
2022-11-06T14:03:42.718Z,101116.02
2022-11-06T14:06:21.433Z,101107.89
2022-11-06T14:08:56.342Z,101106.56
2022-11-06T14:11:30.418Z,101108.31
2022-11-06T14:14:07.651Z,101110.39
2022-11-06T14:16:39.837Z,101118.67
2022-11-06T14:19:27.165Z,101112.18
2022-11-06T14:22:15.281Z,101107.42
2022-11-06T14:24:44.281Z,101108.45
2022-11-06T14:27:34.768Z,101102.12
2022-11-06T14:30:04.786Z,101108.90
2022-11-06T14:32:45.042Z,101102.60
2022-11-06T14:35:32.003Z,101100.52
2022-11-06T14:38:09.541Z,101108.69
2022-11-06T14:40:39.252Z,101110.38
2022-11-06T14:43:30.663Z,101105.56
2022-11-06T14:46:18.004Z,101111.20
2022-11-06T14:48:51.575Z,101107.25
2022-11-06T14:51:27.552Z,101102.73
2022-11-06T14:54:03.589Z,101103.52
2022-11-06T14:56:34.295Z,101099.67
2022-11-06T14:59:18.992Z,101096.04
2022-11-06T15:02:01.262Z,101106.48
2022-11-06T15:04:33.945Z,101106.57
2022-11-06T15:07:11.267Z,101109.52
2022-11-06T15:09:39.324Z,101107.23
2022-11-06T15:12:08.564Z,101109.95
2022-11-06T15:14:37.012Z,101109.79
2022-11-06T15:17:12.354Z,101111.39
2022-11-06T15:19:44.939Z,101114.16
2022-11-06T15:22:20.681Z,101119.00
2022-11-06T15:25:04.406Z,101112.08
2022-11-06T15:27:43.112Z,101117.38
2022-11-06T15:30:17.433Z,101115.52
2022-11-06T15:32:47.471Z,101114.11
2022-11-06T15:35:20.591Z,101114.77
2022-11-06T15:38:03.559Z,101115.59
2022-11-06T15:40:37.306Z,101112.95
2022-11-06T15:43:17.029Z,101115.87
2022-11-06T15:45:45.514Z,101115.80
2022-11-06T15:48:23.207Z,101119.40
2022-11-06T15:50:51.286Z,101122.10
2022-11-06T15:53:26.320Z,101127.73
2022-11-06T15:55:57.638Z,101130.73
2022-11-06T15:58:31.321Z,101128.99
2022-11-06T16:01:01.723Z,101132.56
2022-11-06T16:03:32.887Z,101131.12
2022-11-06T16:06:03.979Z,101134.54
2022-11-06T16:08:32.986Z,101138.48
2022-11-06T16:11:03.626Z,101140.30
2022-11-06T16:13:32.117Z,101144.20
2022-11-06T16:16:01.827Z,101145.30
2022-11-06T16:18:43.124Z,101143.77
2022-11-06T16:21:13.127Z,101154.96
2022-11-06T16:23:52.692Z,101157.92
2022-11-06T16:26:33.155Z,101154.86
2022-11-06T16:29:03.712Z,101161.16
2022-11-06T16:31:31.886Z,101159.73
2022-11-06T16:34:05.842Z,101168.99
2022-11-06T16:36:59.251Z,101162.69
2022-11-06T16:39:47.726Z,101163.33
2022-11-06T16:42:23.000Z,101166.74
2022-11-06T16:45:00.794Z,101170.21
2022-11-06T16:47:29.210Z,101168.31
2022-11-06T16:49:58.692Z,101168.46
2022-11-06T16:52:31.055Z,101168.98
2022-11-06T16:55:04.688Z,101166.30
2022-11-06T16:57:41.958Z,101164.54
2022-11-06T17:00:13.289Z,101166.75
2022-11-06T17:02:48.984Z,101167.95
2022-11-06T17:05:21.160Z,101169.36
2022-11-06T17:08:04.284Z,101176.14
2022-11-06T17:10:35.459Z,101183.94
2022-11-06T17:13:16.032Z,101179.66
2022-11-06T17:15:47.208Z,101189.38
2022-11-06T17:18:19.331Z,101187.04
2022-11-06T17:20:51.812Z,101188.66
2022-11-06T17:23:22.440Z,101190.13
2022-11-06T17:25:59.481Z,101195.12
2022-11-06T17:28:27.705Z,101195.90
2022-11-06T17:30:56.028Z,101194.57
2022-11-06T17:33:24.235Z,101197.28
2022-11-06T17:35:52.682Z,101200.00
2022-11-06T17:38:20.927Z,101201.99
2022-11-06T17:40:49.060Z,101202.36
2022-11-06T17:43:17.710Z,101207.39
2022-11-06T17:45:46.666Z,101214.42
2022-11-06T17:48:14.988Z,101218.45
2022-11-06T17:50:43.199Z,101221.80
2022-11-06T17:53:11.942Z,101220.33
2022-11-06T17:55:40.261Z,101220.73
2022-11-06T17:58:08.606Z,101231.27
2022-11-06T18:00:36.784Z,101232.20
2022-11-06T18:03:05.093Z,101237.92
2022-11-06T18:05:33.768Z,101234.88
2022-11-06T18:08:01.935Z,101240.56
2022-11-06T18:10:30.840Z,101242.29
2022-11-06T18:12:59.237Z,101246.11
2022-11-06T18:15:27.297Z,101250.11
2022-11-06T18:17:55.335Z,101255.14
2022-11-06T18:20:23.486Z,101254.95
2022-11-06T18:22:51.723Z,101256.34
2022-11-06T18:25:20.003Z,101258.40
2022-11-06T18:27:48.075Z,101258.55
2022-11-06T18:30:16.255Z,101265.15
2022-11-06T18:32:44.441Z,101265.26
2022-11-06T18:35:13.019Z,101263.53
2022-11-06T18:37:41.402Z,101266.21
2022-11-06T18:40:10.431Z,101271.26
2022-11-06T18:42:38.585Z,101274.10
2022-11-06T18:45:07.279Z,101271.27
2022-11-06T18:47:35.343Z,101270.40
2022-11-06T18:50:04.242Z,101268.02
2022-11-06T18:52:55.729Z,101270.17
2022-11-06T18:55:20.448Z,101271.11
2022-11-06T18:57:48.525Z,101273.14
2022-11-06T19:00:17.050Z,101276.98
2022-11-06T19:02:45.717Z,101272.33
2022-11-06T19:05:14.211Z,101274.98
2022-11-06T19:07:45.160Z,101275.25
2022-11-06T19:10:18.016Z,101280.54
2022-11-06T19:12:46.057Z,101282.94
2022-11-06T19:15:14.281Z,101288.87
2022-11-06T19:17:42.443Z,101285.88
2022-11-06T19:20:14.723Z,101289.77
2022-11-06T19:22:43.714Z,101290.77
2022-11-06T19:25:11.844Z,101295.45
2022-11-06T19:27:39.967Z,101298.77
2022-11-06T19:30:08.965Z,101299.64
2022-11-06T19:32:37.320Z,101303.76
2022-11-06T19:35:05.838Z,101296.91
2022-11-06T19:37:35.288Z,101301.02
2022-11-06T19:40:06.124Z,101303.32
2022-11-06T19:42:34.788Z,101303.02
2022-11-06T19:45:04.689Z,101303.84
2022-11-06T19:47:32.866Z,101304.63
2022-11-06T19:50:01.663Z,101311.23
2022-11-06T19:52:42.037Z,101315.54
2022-11-06T19:55:26.074Z,101314.40
2022-11-06T19:57:58.453Z,101313.30
2022-11-06T20:00:26.606Z,101313.92
2022-11-06T20:02:54.696Z,101315.25
2022-11-06T20:05:22.861Z,101317.42
2022-11-06T20:07:51.035Z,101320.65
2022-11-06T20:10:19.112Z,101321.34
2022-11-06T20:12:47.397Z,101319.64
2022-11-06T20:15:18.769Z,101317.07
2022-11-06T20:17:51.328Z,101318.55
2022-11-06T20:20:19.604Z,101320.77
2022-11-06T20:22:47.815Z,101326.36
2022-11-06T20:25:16.067Z,101327.10
2022-11-06T20:27:44.249Z,101328.00
2022-11-06T20:30:13.034Z,101333.34
2022-11-06T20:32:42.003Z,101335.37
2022-11-06T20:35:11.288Z,101332.55
2022-11-06T20:37:39.517Z,101336.10
2022-11-06T20:40:08.733Z,101336.65
2022-11-06T20:42:36.894Z,101334.10
2022-11-06T20:45:06.657Z,101335.24
2022-11-06T20:47:34.888Z,101336.73
2022-11-06T20:50:03.476Z,101336.00
2022-11-06T20:52:31.560Z,101336.38
2022-11-06T20:54:59.731Z,101342.77
2022-11-06T20:57:28.015Z,101344.64
2022-11-06T20:59:56.291Z,101347.54
2022-11-06T21:02:24.783Z,101342.50
2022-11-06T21:04:52.835Z,101343.55
2022-11-06T21:07:21.254Z,101343.88
2022-11-06T21:09:49.538Z,101349.47
2022-11-06T21:12:17.630Z,101351.24
2022-11-06T21:14:45.775Z,101352.67
2022-11-06T21:17:14.017Z,101352.19
2022-11-06T21:19:42.265Z,101357.75
2022-11-06T21:22:10.302Z,101359.13
2022-11-06T21:24:38.421Z,101357.70
2022-11-06T21:27:06.400Z,101360.95
2022-11-06T21:29:34.361Z,101367.31
2022-11-06T21:32:02.499Z,101366.67
2022-11-06T21:34:30.436Z,101368.66
2022-11-06T21:37:02.640Z,101368.73
2022-11-06T21:39:35.937Z,101370.84
2022-11-06T21:42:05.748Z,101371.25
2022-11-06T21:44:34.064Z,101370.41
2022-11-06T21:47:02.102Z,101369.21
2022-11-06T21:49:30.173Z,101365.91
2022-11-06T21:51:58.369Z,101366.11
2022-11-06T21:54:26.857Z,101366.09
2022-11-06T21:56:54.863Z,101373.48
2022-11-06T21:59:26.829Z,101375.50
2022-11-06T22:01:55.008Z,101375.11
2022-11-06T22:04:23.717Z,101373.98
2022-11-06T22:06:51.980Z,101373.84
2022-11-06T22:09:24.786Z,101374.45
2022-11-06T22:11:53.491Z,101371.35
2022-11-06T22:14:21.604Z,101369.67
2022-11-06T22:16:49.769Z,101369.02
2022-11-06T22:19:18.103Z,101364.45
2022-11-06T22:21:46.076Z,101365.31
2022-11-06T22:24:14.562Z,101371.17
2022-11-06T22:26:43.071Z,101371.77
2022-11-06T22:29:13.893Z,101374.32
2022-11-06T22:31:42.032Z,101365.39
2022-11-06T22:34:11.790Z,101367.73
2022-11-06T22:36:40.776Z,101363.33
2022-11-06T22:39:10.952Z,101366.08
2022-11-06T22:41:39.947Z,101373.55
2022-11-06T22:44:08.543Z,101374.60
2022-11-06T22:46:36.727Z,101370.71
2022-11-06T22:49:05.688Z,101378.29
2022-11-06T22:51:34.526Z,101378.59
2022-11-06T22:54:03.124Z,101381.58
2022-11-06T22:56:32.097Z,101378.77
2022-11-06T22:59:03.368Z,101384.02
2022-11-06T23:01:37.217Z,101381.09
2022-11-06T23:04:11.998Z,101383.30
2022-11-06T23:06:40.812Z,101384.41
2022-11-06T23:09:09.250Z,101382.75
2022-11-06T23:11:37.327Z,101381.16
2022-11-06T23:14:08.831Z,101375.73
2022-11-06T23:16:37.345Z,101378.06
2022-11-06T23:19:05.707Z,101377.17
2022-11-06T23:21:33.752Z,101382.00
2022-11-06T23:24:02.310Z,101382.37
2022-11-06T23:26:30.492Z,101382.89
2022-11-06T23:28:59.074Z,101379.92
2022-11-06T23:31:27.254Z,101374.68
2022-11-06T23:33:56.254Z,101376.42
2022-11-06T23:36:24.943Z,101381.05
2022-11-06T23:38:54.044Z,101378.75
2022-11-06T23:41:22.443Z,101382.72
2022-11-06T23:43:50.604Z,101382.48
2022-11-06T23:46:20.235Z,101382.55
2022-11-06T23:48:48.594Z,101380.15
2022-11-06T23:51:18.003Z,101374.10
2022-11-06T23:53:46.136Z,101374.52
2022-11-06T23:56:15.058Z,101371.85
2022-11-06T23:58:43.970Z,101372.42
